Time;durP1;ratioP1;P1;durP2;ratioP2;P2;SDS_P1;SDS_P2;PMS_P1;PMS_P2;Temp;Humidity;BMP_temperature;BMP_pressure;BME280_temperature;BME280_humidity;BME280_pressure;Samples;Min_cycle;Max_cycle;Signal;HPM_P1;HPM_P2
2022/05/25 00:00:22;;;;;;;1.27;1.17;;;;;;;9.92;77.02;101162.50;6215752;23;20005;-81
2022/05/25 00:02:47;;;;;;;1.13;1.13;;;;;;;9.88;76.35;101159.94;6215314;23;20344;-82
2022/05/25 00:05:14;;;;;;;1.23;1.23;;;;;;;9.88;76.54;101164.28;6214055;23;20004;-82
2022/05/25 00:07:39;;;;;;;1.23;1.23;;;;;;;9.86;76.86;101173.78;6215142;23;20015;-82
2022/05/25 00:10:05;;;;;;;1.50;1.40;;;;;;;9.86;76.85;101173.78;6214997;23;20000;-81
2022/05/25 00:12:31;;;;;;;1.40;1.30;;;;;;;9.86;76.91;101168.59;6188745;23;19996;-81
2022/05/25 00:14:59;;;;;;;1.50;1.40;;;;;;;9.86;76.69;101176.38;6214881;23;20704;-81
2022/05/25 00:17:24;;;;;;;1.50;1.40;;;;;;;9.85;76.77;101174.66;6214798;23;20059;-81
2022/05/25 00:19:59;;;;;;;1.60;1.50;;;;;;;9.82;76.77;101172.97;6214870;23;20430;-81
2022/05/25 00:22:36;;;;;;;1.70;1.60;;;;;;;9.81;77.17;101171.22;6215659;23;20000;-82
2022/05/25 00:25:02;;;;;;;1.15;1.15;;;;;;;9.81;76.82;101181.59;6214563;23;20330;-81
2022/05/25 00:27:27;;;;;;;1.50;1.40;;;;;;;9.80;77.80;101179.00;6215251;23;20008;-81
2022/05/25 00:29:52;;;;;;;1.70;1.60;;;;;;;9.78;77.07;101179.03;6214762;23;20036;-81
2022/05/25 00:32:18;;;;;;;1.70;1.60;;;;;;;9.74;77.72;101166.94;6214345;23;20337;-82
2022/05/25 00:34:43;;;;;;;1.70;1.60;;;;;;;9.74;77.49;101182.50;6214988;23;20059;-81
2022/05/25 00:37:08;;;;;;;1.80;1.70;;;;;;;9.73;77.46;101179.06;6214994;23;20451;-81
2022/05/25 00:39:33;;;;;;;1.60;1.50;;;;;;;9.72;77.02;101181.66;6214564;23;20004;-81
2022/05/25 00:41:59;;;;;;;1.77;1.67;;;;;;;9.72;77.17;101177.31;6215063;23;20322;-81
2022/05/25 00:44:24;;;;;;;2.10;2.00;;;;;;;9.70;76.93;101184.25;6215549;23;20015;-81
2022/05/25 00:46:50;;;;;;;1.80;1.70;;;;;;;9.70;76.95;101184.25;6214194;23;20406;-81
2022/05/25 00:49:27;;;;;;;2.10;1.90;;;;;;;9.71;77.00;101180.78;6215557;23;20008;-81
2022/05/25 00:51:56;;;;;;;1.80;1.70;;;;;;;9.67;77.46;101188.59;6214676;23;20100;-81
2022/05/25 00:54:28;;;;;;;1.90;1.80;;;;;;;9.63;77.20;101184.28;6214501;23;20020;-81
2022/05/25 00:56:56;;;;;;;1.90;1.80;;;;;;;9.61;77.09;101189.50;6214568;23;20341;-81
2022/05/25 00:59:27;;;;;;;2.03;1.92;;;;;;;9.60;76.61;101194.69;6214523;23;20036;-81
2022/05/25 01:01:54;;;;;;;2.20;2.00;;;;;;;9.56;77.10;101199.88;6214519;23;20001;-81
2022/05/25 01:04:19;;;;;;;1.95;1.80;;;;;;;9.55;77.24;101199.91;6215437;23;20004;-81
2022/05/25 01:07:11;;;;;;;1.83;1.73;;;;;;;9.53;77.27;101204.22;6213260;23;20566;-81
2022/05/25 01:10:04;;;;;;;2.10;1.90;;;;;;;9.52;77.30;101205.09;6214819;23;20013;-81
2022/05/25 01:13:02;;;;;;;1.90;1.80;;;;;;;9.50;77.28;101206.81;6214120;23;20384;-81
2022/05/25 01:15:49;;;;;;;1.98;1.88;;;;;;;9.47;77.20;101207.72;6214428;23;20004;-81
2022/05/25 01:18:56;;;;;;;2.58;2.20;;;;;;;9.41;77.84;101202.53;6215298;23;20011;-81
2022/05/25 01:21:32;;;;;;;2.08;1.88;;;;;;;9.39;78.27;101204.31;6173208;23;20009;-81
2022/05/25 01:24:09;;;;;;;2.00;1.90;;;;;;;9.38;78.97;101203.44;6215107;23;20014;-81
2022/05/25 01:27:09;;;;;;;2.47;2.10;;;;;;;9.36;78.67;101205.16;6214896;23;20012;-81
2022/05/25 01:29:53;;;;;;;1.92;1.83;;;;;;;9.31;79.13;101209.50;6214112;23;20019;-80
2022/05/25 01:32:31;;;;;;;2.05;1.90;;;;;;;9.30;79.39;101207.78;6215145;23;20001;-81
2022/05/25 01:35:26;;;;;;;1.88;1.70;;;;;;;9.29;78.35;101208.66;6213716;23;20009;-81
2022/05/25 01:37:57;;;;;;;1.70;1.60;;;;;;;9.30;78.44;101204.31;6202172;23;20009;-81
2022/05/25 01:40:43;;;;;;;2.58;2.28;;;;;;;9.29;78.35;101211.25;6215231;23;20079;-81
2022/05/25 01:43:31;;;;;;;2.30;2.10;;;;;;;9.29;78.56;101207.81;6214117;23;20031;-81
2022/05/25 01:46:04;;;;;;;2.08;1.90;;;;;;;9.26;78.45;101214.72;6214660;23;20019;-80
2022/05/25 01:48:33;;;;;;;2.20;2.00;;;;;;;9.25;78.06;101209.53;6215194;23;20382;-81
2022/05/25 01:51:21;;;;;;;2.20;2.00;;;;;;;9.24;77.99;101211.25;6214484;23;20074;-81
2022/05/25 01:53:52;;;;;;;2.20;1.90;;;;;;;9.24;78.06;101213.84;6214605;23;20127;-80
2022/05/25 01:56:20;;;;;;;2.92;2.40;;;;;;;9.22;80.01;101217.31;6213779;23;20008;-80
2022/05/25 01:58:51;;;;;;;2.22;2.00;;;;;;;9.18;78.87;101216.44;6214643;23;20008;-80
2022/05/25 02:01:16;;;;;;;2.22;2.03;;;;;;;9.16;78.74;101217.31;6215025;23;20012;-80
2022/05/25 02:06:47;;;;;;;2.20;2.00;;;;;;;9.15;79.02;101211.31;6216620;23;20142;-81
2022/05/25 02:09:35;;;;;;;1.90;1.80;;;;;;;9.14;79.71;101217.34;6216486;23;20505;-81
2022/05/25 02:12:14;;;;;;;2.00;1.90;;;;;;;9.13;79.08;101220.78;6215656;23;20011;-81
2022/05/25 02:14:39;;;;;;;2.03;1.83;;;;;;;9.12;80.20;101219.91;6216462;23;20326;-80
2022/05/25 02:17:20;;;;;;;1.90;1.80;;;;;;;9.10;79.83;101226.84;6215785;23;20005;-80
2022/05/25 02:20:07;;;;;;;2.10;1.88;;;;;;;9.08;79.55;101220.81;6216347;23;20004;-80
2022/05/25 02:22:43;;;;;;;2.10;1.90;;;;;;;9.05;81.00;101226.00;6216673;23;20032;-80
2022/05/25 02:25:14;;;;;;;2.03;1.92;;;;;;;9.04;79.72;101221.69;6215517;23;20418;-80
2022/05/25 02:27:49;;;;;;;2.10;1.90;;;;;;;9.03;79.97;101224.28;6216216;23;20008;-80
2022/05/25 02:30:21;;;;;;;1.90;1.70;;;;;;;9.00;80.09;101221.69;6216157;23;20453;-80
2022/05/25 02:32:53;;;;;;;2.17;2.00;;;;;;;8.95;82.96;101232.06;6215141;23;20016;-80
2022/05/25 02:35:23;;;;;;;2.88;2.30;;;;;;;8.93;81.06;101232.06;6216184;23;20429;-80
2022/05/25 02:37:51;;;;;;;4.18;3.05;;;;;;;8.93;82.61;101236.38;6215393;23;20028;-80
2022/05/25 02:40:17;;;;;;;3.95;2.85;;;;;;;8.91;82.38;101232.91;6216173;23;20509;-80
2022/05/25 02:42:42;;;;;;;5.50;3.10;;;;;;;8.87;82.03;101229.47;6216122;23;20012;-80
2022/05/25 02:45:10;;;;;;;3.58;2.95;;;;;;;8.86;83.06;101238.13;6215719;23;20063;-80
2022/05/25 02:47:36;;;;;;;3.85;3.15;;;;;;;8.86;81.66;101234.69;6216348;23;20081;-80
2022/05/25 02:50:01;;;;;;;3.80;3.00;;;;;;;8.86;82.35;101240.69;6215989;23;20017;-80
2022/05/25 02:52:27;;;;;;;3.50;2.80;;;;;;;8.86;81.96;101234.69;6214939;23;20008;-80
2022/05/25 02:54:52;;;;;;;3.07;2.63;;;;;;;8.86;82.57;101240.69;6216081;23;20001;-80
2022/05/25 02:57:18;;;;;;;2.50;2.30;;;;;;;8.85;83.39;101238.97;6215999;23;20005;-81
2022/05/25 02:59:43;;;;;;;4.90;3.07;;;;;;;8.83;83.28;101245.03;6215164;23;20001;-81
2022/05/25 03:02:08;;;;;;;3.43;2.60;;;;;;;8.82;82.68;101249.34;6216115;23;20004;-81
2022/05/25 03:04:37;;;;;;;3.60;2.80;;;;;;;8.84;83.04;101251.94;6216443;23;20000;-81
2022/05/25 03:07:03;;;;;;;2.67;2.40;;;;;;;8.84;82.64;101249.34;6215281;23;20006;-81
2022/05/25 03:09:28;;;;;;;2.90;2.60;;;;;;;8.82;83.70;101257.13;6216371;23;20005;-81
2022/05/25 03:11:54;;;;;;;3.73;2.53;;;;;;;8.81;82.61;101253.66;6215890;23;20000;-80
2022/05/25 03:14:19;;;;;;;2.50;2.30;;;;;;;8.84;82.62;101257.09;6214924;23;20062;-80
2022/05/25 03:16:47;;;;;;;2.33;2.13;;;;;;;8.83;83.21;101260.56;6215133;23;20035;-80
2022/05/25 03:19:12;;;;;;;2.28;2.08;;;;;;;8.84;81.87;101263.13;6215808;23;20092;-80
2022/05/25 03:21:37;;;;;;;2.53;1.90;;;;;;;8.86;83.66;101265.72;6214619;23;20047;-80
2022/05/25 03:24:03;;;;;;;2.23;2.00;;;;;;;8.83;83.21;101261.44;6216154;23;20425;-80
2022/05/25 03:26:28;;;;;;;2.43;2.23;;;;;;;8.83;83.00;101255.38;6216033;23;20008;-80
2022/05/25 03:28:53;;;;;;;2.58;2.38;;;;;;;8.83;83.70;101257.97;6214510;23;20004;-80
2022/05/25 03:31:18;;;;;;;2.47;2.20;;;;;;;8.80;82.62;101253.66;6215814;23;20005;-80
2022/05/25 03:33:44;;;;;;;2.30;2.10;;;;;;;8.82;82.79;101264.88;6215629;23;20032;-80
2022/05/25 03:36:09;;;;;;;2.50;2.20;;;;;;;8.81;83.07;101261.41;6214982;23;20001;-80
2022/05/25 03:38:34;;;;;;;2.20;2.00;;;;;;;8.83;82.13;101261.44;6216059;23;20005;-80
2022/05/25 03:41:00;;;;;;;1.83;1.73;;;;;;;8.83;81.70;101266.59;6215601;23;20369;-80
2022/05/25 03:43:34;;;;;;;1.70;1.60;;;;;;;8.84;81.47;101272.63;6215150;23;20098;-80
2022/05/25 03:46:00;;;;;;;1.90;1.80;;;;;;;8.84;83.38;101275.22;6215479;23;20011;-80
2022/05/25 03:48:25;;;;;;;1.50;1.40;;;;;;;8.83;81.55;101276.97;6215105;23;20720;-80
2022/05/25 03:50:51;;;;;;;2.80;1.90;;;;;;;8.83;82.50;101281.25;6215185;23;20548;-80
2022/05/25 03:53:19;;;;;;;1.95;1.80;;;;;;;8.81;81.49;101291.63;6215680;23;20080;-80
2022/05/25 03:55:48;;;;;;;2.30;2.10;;;;;;;8.78;82.62;101284.69;6214552;23;20004;-81
2022/05/25 03:58:14;;;;;;;2.30;2.10;;;;;;;8.75;83.52;101286.44;6215703;23;20004;-80
2022/05/25 04:00:39;;;;;;;2.10;1.90;;;;;;;8.72;82.83;101295.06;6215535;23;20013;-80
2022/05/25 04:03:05;;;;;;;2.30;2.10;;;;;;;8.71;83.49;101298.53;6214869;23;20032;-81
2022/05/25 04:05:32;;;;;;;3.30;2.50;;;;;;;8.70;83.65;101301.97;6215782;23;20371;-80
2022/05/25 04:07:58;;;;;;;2.47;2.28;;;;;;;8.70;84.93;101296.78;6215316;23;20032;-80
2022/05/25 04:10:24;;;;;;;2.40;2.20;;;;;;;8.68;82.95;101295.06;6214758;23;20011;-80
2022/05/25 04:12:50;;;;;;;2.40;2.20;;;;;;;8.72;82.58;101299.41;6215427;23;20080;-80
2022/05/25 04:15:21;;;;;;;3.27;2.53;;;;;;;8.72;84.40;101302.00;6215376;23;20380;-80
2022/05/25 04:17:47;;;;;;;5.75;2.70;;;;;;;8.71;85.13;101302.84;6214035;23;20517;-80
2022/05/25 04:20:13;;;;;;;3.70;2.70;;;;;;;8.71;84.16;101301.09;6215768;23;20087;-81
2022/05/25 04:22:39;;;;;;;3.67;2.70;;;;;;;8.73;85.28;101307.16;6214874;23;20011;-80
2022/05/25 04:25:10;;;;;;;3.33;2.47;;;;;;;8.74;84.00;101310.59;6214417;23;20004;-80
2022/05/25 04:27:36;;;;;;;2.70;2.20;;;;;;;8.75;84.87;101310.59;6215191;23;20032;-80
2022/05/25 04:30:02;;;;;;;3.15;2.20;;;;;;;8.78;84.40;101310.59;6215015;23;20012;-80
2022/05/25 04:32:27;;;;;;;2.40;2.20;;;;;;;8.81;84.13;101304.56;6214396;23;20001;-80
2022/05/25 04:34:53;;;;;;;2.42;2.17;;;;;;;8.83;84.22;101302.84;6214847;23;20011;-80
2022/05/25 04:40:03;;;;;;;2.85;2.13;;;;;;;8.89;84.09;101301.97;6215492;23;20019;-81
2022/05/25 04:42:31;;;;;;;2.80;2.43;;;;;;;8.91;85.26;101311.47;6215353;23;20079;-80
2022/05/25 04:45:00;;;;;;;2.63;2.35;;;;;;;8.94;83.83;101313.19;6214072;23;20013;-80
2022/05/25 04:47:27;;;;;;;2.22;2.03;;;;;;;8.98;83.62;101309.72;6215016;23;20028;-80
2022/05/25 04:49:53;;;;;;;3.70;2.38;;;;;;;9.02;84.01;101324.38;6214935;23;20067;-80
2022/05/25 04:52:18;;;;;;;3.47;2.40;;;;;;;9.04;84.23;101319.22;6214434;23;20009;-80
2022/05/25 04:54:43;;;;;;;4.63;2.70;;;;;;;9.06;86.01;101312.31;6213971;23;20063;-80
2022/05/25 04:57:21;;;;;;;3.07;2.53;;;;;;;9.08;84.48;101320.91;6215453;23;20005;-80
2022/05/25 04:59:47;;;;;;;2.90;2.60;;;;;;;9.13;84.55;101326.97;6214179;23;20132;-79
2022/05/25 05:02:12;;;;;;;5.20;2.90;;;;;;;9.14;86.03;101326.09;6214917;23;20061;-80
2022/05/25 05:04:38;;;;;;;3.37;2.50;;;;;;;9.17;85.14;101339.06;6214527;23;20075;-80
2022/05/25 05:07:03;;;;;;;4.65;3.17;;;;;;;9.19;86.97;101329.53;6214387;23;20015;-80
2022/05/25 05:09:37;;;;;;;5.30;3.33;;;;;;;9.20;86.59;101323.50;6215585;23;20350;-80
2022/05/25 05:12:03;;;;;;;5.25;3.10;;;;;;;9.24;86.29;101325.22;6214880;23;20009;-80
2022/05/25 05:14:28;;;;;;;3.63;2.60;;;;;;;9.26;85.71;101326.09;6214047;23;20011;-80
2022/05/25 05:16:58;;;;;;;4.57;2.80;;;;;;;9.33;85.83;101336.41;6214687;23;20080;-80
2022/05/25 05:19:25;;;;;;;6.20;3.38;;;;;;;9.36;86.65;101332.09;6215006;23;20012;-80
2022/05/25 05:21:51;;;;;;;5.53;2.97;;;;;;;9.39;86.32;101329.50;6213613;23;20418;-80
2022/05/25 05:24:16;;;;;;;5.50;2.88;;;;;;;9.46;86.74;101324.31;6214858;23;20004;-80
2022/05/25 05:26:42;;;;;;;7.17;4.03;;;;;;;9.48;86.51;101328.63;6213846;23;20008;-81
2022/05/25 05:29:07;;;;;;;4.88;3.25;;;;;;;9.53;86.08;101323.41;6215147;23;20083;-80
2022/05/25 05:31:33;;;;;;;5.30;3.20;;;;;;;9.63;85.00;101322.53;6215288;23;20072;-80
2022/05/25 05:34:01;;;;;;;5.75;3.20;;;;;;;9.66;85.75;101324.22;6214061;23;20004;-80
2022/05/25 05:36:30;;;;;;;5.40;2.78;;;;;;;9.71;86.52;101319.91;6215222;23;20016;-80
2022/05/25 05:39:00;;;;;;;5.53;3.33;;;;;;;9.77;86.77;101319.88;6215680;23;20058;-80
2022/05/25 05:41:32;;;;;;;4.35;3.17;;;;;;;9.81;86.81;101316.41;6216269;23;20066;-80
2022/05/25 05:43:59;;;;;;;3.95;2.78;;;;;;;9.87;85.83;101307.72;6216865;23;20026;-80
2022/05/25 05:46:26;;;;;;;6.83;2.90;;;;;;;9.92;86.93;101308.56;6217010;23;20032;-80
2022/05/25 05:48:51;;;;;;;5.43;3.20;;;;;;;9.99;86.14;101314.56;6215356;23;20689;-81
2022/05/25 05:51:17;;;;;;;4.97;3.20;;;;;;;10.03;86.27;101311.94;6217064;23;20012;-80
2022/05/25 05:53:44;;;;;;;6.95;3.20;;;;;;;10.08;85.44;101308.47;6216669;23;20005;-80
2022/05/25 05:56:10;;;;;;;6.75;3.30;;;;;;;10.13;86.93;101306.75;6216266;23;20067;-80
2022/05/25 05:58:35;;;;;;;6.63;3.77;;;;;;;10.20;85.94;101308.41;6216954;23;20004;-80
2022/05/25 06:01:00;;;;;;;7.00;3.47;;;;;;;10.28;85.93;101317.00;6216559;23;20011;-80
2022/05/25 06:03:26;;;;;;;5.20;3.20;;;;;;;10.34;85.62;101324.75;6216164;23;20032;-80
2022/05/25 06:05:51;;;;;;;4.87;3.30;;;;;;;10.43;85.64;101320.41;6216574;23;20009;-80
2022/05/25 06:08:23;;;;;;;7.03;3.60;;;;;;;10.52;85.55;101322.06;6216238;23;20428;-81
2022/05/25 06:10:49;;;;;;;9.30;4.05;;;;;;;10.59;85.57;101326.34;6213490;23;20011;-81
2022/05/25 06:13:14;;;;;;;5.93;3.60;;;;;;;10.87;85.19;101321.78;6216321;23;20338;-81
2022/05/25 06:21:19;;;;;;;5.85;3.65;;;;;;;12.35;82.54;101336.56;6216705;23;20019;-80
2022/05/25 06:23:45;;;;;;;6.10;3.70;;;;;;;12.61;81.68;101343.97;6215093;23;20484;-81
2022/05/25 06:26:10;;;;;;;6.20;3.40;;;;;;;12.72;80.09;101348.97;6216371;23;20004;-80
2022/05/25 06:28:35;;;;;;;7.50;4.17;;;;;;;12.81;79.05;101353.19;6216778;23;20011;-81
2022/05/25 06:31:01;;;;;;;6.87;3.90;;;;;;;13.16;79.22;101349.13;6213063;23;20017;-80
2022/05/25 06:33:26;;;;;;;5.90;3.70;;;;;;;13.42;77.67;101345.22;6216596;23;20441;-80
2022/05/25 06:35:52;;;;;;;6.03;3.70;;;;;;;13.71;76.25;101352.47;6216370;23;20000;-81
2022/05/25 06:38:17;;;;;;;8.43;5.23;;;;;;;13.79;76.05;101346.22;6215748;23;20009;-80
2022/05/25 06:40:42;;;;;;;8.30;4.80;;;;;;;13.91;75.66;101361.63;6216013;23;20059;-81
2022/05/25 06:43:07;;;;;;;6.43;4.33;;;;;;;14.24;74.33;101366.16;6216224;23;20016;-81
2022/05/25 06:45:33;;;;;;;8.77;4.77;;;;;;;14.16;73.88;101356.72;6215242;23;20039;-81
2022/05/25 06:47:58;;;;;;;9.90;5.40;;;;;;;14.03;73.60;101365.72;6216062;23;20011;-81
2022/05/25 06:50:25;;;;;;;8.87;4.97;;;;;;;13.93;74.88;101365.06;6215974;23;20001;-80
2022/05/25 06:52:53;;;;;;;7.80;4.80;;;;;;;13.82;74.98;101367.88;6215092;23;20083;-81
2022/05/25 06:55:18;;;;;;;9.45;5.70;;;;;;;13.71;74.52;101360.28;6216596;23;20011;-81
2022/05/25 06:57:44;;;;;;;9.70;5.93;;;;;;;13.54;75.14;101364.97;6216149;23;20006;-80
2022/05/25 07:00:10;;;;;;;11.77;6.87;;;;;;;13.52;75.44;101371.94;6215521;23;20004;-82
2022/05/25 07:02:35;;;;;;;8.90;6.30;;;;;;;13.47;76.12;101363.38;6215927;23;20330;-83
2022/05/25 07:05:00;;;;;;;8.03;5.40;;;;;;;13.48;76.12;101371.16;6215876;23;20011;-84
2022/05/25 07:07:26;;;;;;;10.43;6.23;;;;;;;13.56;75.69;101378.84;6215131;23;20012;-83
2022/05/25 07:09:51;;;;;;;10.00;6.43;;;;;;;13.64;76.13;101378.69;6215848;23;20059;-82
2022/05/25 07:12:17;;;;;;;9.63;5.87;;;;;;;13.67;76.09;101384.72;6215211;23;20005;-81
2022/05/25 07:14:43;;;;;;;8.93;5.78;;;;;;;13.70;75.89;101384.66;6215415;23;20005;-81
2022/05/25 07:17:08;;;;;;;8.23;5.50;;;;;;;13.78;75.52;101379.28;6215848;23;20016;-81
2022/05/25 07:19:34;;;;;;;7.20;4.63;;;;;;;13.96;75.91;101401.50;6215252;23;20426;-82
2022/05/25 07:21:59;;;;;;;7.57;4.57;;;;;;;14.11;75.28;101396.88;6188880;23;20441;-82
2022/05/25 07:24:25;;;;;;;9.83;5.40;;;;;;;14.36;74.90;101395.44;6216154;23;20005;-81
2022/05/25 07:26:51;;;;;;;6.40;4.20;;;;;;;14.58;74.22;101408.03;6214803;23;20009;-81
2022/05/25 07:29:16;;;;;;;7.00;4.43;;;;;;;14.70;72.41;101403.44;6215554;23;20012;-85
2022/05/25 07:31:47;;;;;;;10.23;5.37;;;;;;;14.65;72.84;101406.13;6215694;23;20247;-82
2022/05/25 07:34:17;;;;;;;7.68;4.93;;;;;;;14.75;73.45;101406.81;6215361;23;20059;-83
2022/05/25 07:36:46;;;;;;;8.80;4.75;;;;;;;14.81;73.01;101409.28;6215279;23;20361;-82
2022/05/25 07:39:14;;;;;;;6.63;4.10;;;;;;;14.92;72.79;101401.16;6215864;23;20004;-81
2022/05/25 07:41:43;;;;;;;4.88;3.58;;;;;;;15.08;72.58;101401.66;6214764;23;20026;-83
2022/05/25 07:44:14;;;;;;;6.03;3.70;;;;;;;15.28;72.06;101415.06;6215905;23;20005;-82
2022/05/25 07:46:40;;;;;;;4.80;3.40;;;;;;;15.43;72.66;101412.94;6211760;23;20091;-84
2022/05/25 07:49:05;;;;;;;7.77;4.00;;;;;;;15.53;71.63;101403.09;6214108;23;20379;-82
2022/05/25 07:51:30;;;;;;;4.83;3.30;;;;;;;15.70;72.20;101402.63;6215317;23;20058;-83
2022/05/25 07:53:58;;;;;;;4.63;2.90;;;;;;;15.92;70.56;101412.53;6215501;23;20422;-84
2022/05/25 07:56:30;;;;;;;7.25;4.35;;;;;;;15.99;70.50;101411.44;6215038;23;20377;-85
2022/05/25 07:58:58;;;;;;;8.05;4.70;;;;;;;16.11;67.71;101415.47;6213890;23;20012;-82
2022/05/25 08:06:59;;;;;;;6.50;4.43;;;;;;;16.38;69.31;101415.56;6215262;23;20563;-83
2022/05/25 08:09:27;;;;;;;4.13;3.25;;;;;;;16.60;70.45;101416.59;6215013;23;20014;-83
2022/05/25 08:11:53;;;;;;;4.72;3.30;;;;;;;16.81;68.22;101419.44;6214984;23;20001;-84
2022/05/25 08:14:21;;;;;;;4.03;2.90;;;;;;;16.91;69.25;101423.47;6215292;23;20004;-84
2022/05/25 08:16:46;;;;;;;2.60;2.40;;;;;;;16.87;69.15;101423.63;6213698;23;20016;-83
2022/05/25 08:19:11;;;;;;;4.90;3.23;;;;;;;16.72;68.30;101425.84;6215620;23;20424;-85
2022/05/25 08:21:36;;;;;;;7.50;3.60;;;;;;;16.61;67.18;101420.91;6215332;23;20015;-86
2022/05/25 08:24:02;;;;;;;6.77;3.77;;;;;;;16.51;66.73;101429.97;6213568;23;20427;-85
2022/05/25 08:26:27;;;;;;;5.63;3.70;;;;;;;16.49;65.74;101416.09;6215247;23;20004;-86
2022/05/25 08:28:52;;;;;;;6.73;3.50;;;;;;;16.61;67.37;101425.31;6214325;23;20422;-84
2022/05/25 08:31:17;;;;;;;5.90;3.47;;;;;;;16.72;67.07;101417.97;6214716;23;20008;-85
2022/05/25 08:33:43;;;;;;;4.73;3.30;;;;;;;16.81;67.03;101416.81;6215265;23;20134;-86
2022/05/25 08:36:09;;;;;;;4.27;2.67;;;;;;;17.00;64.38;101408.38;6215258;23;20001;-87
2022/05/25 08:38:34;;;;;;;4.63;3.27;;;;;;;17.09;66.11;101411.56;6214293;23;20011;-83
2022/05/25 08:41:00;;;;;;;5.00;2.60;;;;;;;17.20;65.84;101411.19;6215087;23;20083;-83
2022/05/25 08:43:39;;;;;;;5.13;3.10;;;;;;;17.37;64.87;101413.22;6215112;23;20004;-86
2022/05/25 08:46:14;;;;;;;3.03;2.60;;;;;;;17.45;61.94;101405.94;6215266;23;20000;-86
2022/05/25 08:48:41;;;;;;;4.97;3.10;;;;;;;17.43;64.53;101399.91;6215174;23;20012;-83
2022/05/25 08:51:13;;;;;;;5.22;2.70;;;;;;;17.54;63.16;101396.88;6214629;23;20081;-83
2022/05/25 08:53:39;;;;;;;3.72;2.40;;;;;;;17.54;64.80;101401.28;6215013;23;20016;-83
2022/05/25 08:56:29;;;;;;;2.53;2.10;;;;;;;17.68;61.94;101396.38;6215399;23;20009;-83
2022/05/25 08:59:04;;;;;;;3.58;2.90;;;;;;;17.75;62.56;101394.41;6214019;23;20139;-87
2022/05/25 09:01:37;;;;;;;5.05;2.90;;;;;;;17.74;62.66;101401.44;6215389;23;20005;-83
2022/05/25 09:04:12;;;;;;;4.05;2.88;;;;;;;17.87;62.22;101401.81;6215337;23;20004;-85
2022/05/25 09:07:02;;;;;;;3.77;2.80;;;;;;;17.89;61.50;101401.78;6214064;23;20000;-84
2022/05/25 09:09:32;;;;;;;2.83;2.10;;;;;;;17.93;62.01;101403.34;6214740;23;20001;-83
2022/05/25 09:12:39;;;;;;;3.72;1.90;;;;;;;18.04;61.89;101411.72;6213205;23;20767;-84
2022/05/25 09:15:09;;;;;;;2.75;2.03;;;;;;;17.85;61.38;101411.50;6215288;23;20011;-84
2022/05/25 09:18:05;;;;;;;2.42;1.70;;;;;;;17.61;58.95;101415.91;6217163;23;20008;-83
2022/05/25 09:20:36;;;;;;;1.40;1.30;;;;;;;17.45;63.03;101415.59;6215875;23;20009;-82
2022/05/25 09:23:01;;;;;;;2.47;1.60;;;;;;;17.35;60.95;101417.66;6217221;23;20012;-84
2022/05/25 09:25:27;;;;;;;1.93;1.40;;;;;;;17.45;59.45;101416.44;6216846;23;20001;-84
2022/05/25 09:28:14;;;;;;;2.80;1.77;;;;;;;17.40;59.45;101420.13;6215635;23;20314;-84
2022/05/25 09:30:42;;;;;;;3.30;1.65;;;;;;;17.30;59.64;101430.09;6216368;23;20327;-83
2022/05/25 09:33:41;;;;;;;1.52;1.42;;;;;;;17.38;58.79;101420.19;6216517;23;20066;-86
2022/05/25 09:36:21;;;;;;;1.48;1.38;;;;;;;17.59;59.69;101423.84;6217534;23;20008;-89
2022/05/25 09:38:55;;;;;;;1.92;1.60;;;;;;;17.87;57.21;101425.44;6217285;23;20009;-87
2022/05/25 09:41:24;;;;;;;1.80;1.58;;;;;;;18.13;58.12;101420.16;6216066;23;20009;-86
2022/05/25 09:43:56;;;;;;;2.15;1.20;;;;;;;18.46;55.81;101428.53;6216417;23;20426;-90
2022/05/25 09:46:41;;;;;;;1.95;1.52;;;;;;;18.63;56.31;101429.66;6217227;23;20009;-84
2022/05/25 09:49:12;;;;;;;2.38;1.63;;;;;;;18.90;53.14;101430.31;6216286;23;20066;-85
2022/05/25 09:51:39;;;;;;;1.02;1.00;;;;;;;19.17;53.84;101429.25;6217122;23;20001;-85
2022/05/25 09:54:13;;;;;;;1.52;1.27;;;;;;;19.17;54.47;101429.25;6216494;23;20008;-89
2022/05/25 09:56:43;;;;;;;1.10;1.10;;;;;;;19.04;56.97;101426.25;6216820;23;20024;-87
2022/05/25 09:59:25;;;;;;;0.85;0.80;;;;;;;18.91;57.80;101432.03;6216974;23;20005;-87
2022/05/25 10:01:52;;;;;;;0.77;0.77;;;;;;;18.75;54.62;101434.38;6215350;23;20004;-86
2022/05/25 10:04:35;;;;;;;1.10;0.93;;;;;;;18.63;56.87;101441.00;6216960;23;20321;-85
2022/05/25 10:07:24;;;;;;;0.95;0.88;;;;;;;18.93;55.50;101438.06;6216544;23;20028;-86
2022/05/25 10:09:52;;;;;;;2.53;1.20;;;;;;;18.99;54.84;101452.75;6215728;23;20005;-84
2022/05/25 10:12:32;;;;;;;1.67;1.30;;;;;;;18.71;52.34;101440.72;6216287;23;20001;-84
2022/05/25 10:14:59;;;;;;;1.25;0.93;;;;;;;18.42;52.21;101439.22;6215737;23;20873;-87
2022/05/25 10:17:30;;;;;;;1.48;1.13;;;;;;;18.43;54.72;101435.69;6216800;23;20326;-84
2022/05/25 10:19:57;;;;;;;1.05;1.00;;;;;;;18.61;54.77;101437.56;6216340;23;20005;-85
2022/05/25 10:22:33;;;;;;;0.70;0.70;;;;;;;18.70;54.58;101435.50;6215690;23;20012;-84
2022/05/25 10:25:25;;;;;;;1.95;1.10;;;;;;;18.47;52.41;101432.00;6216672;23;20322;-83
2022/05/25 10:27:50;;;;;;;0.80;0.80;;;;;;;18.23;55.36;101442.56;6216195;23;20311;-84
2022/05/25 10:38:46;;;;;;;3.10;1.17;;;;;;;18.51;52.09;101420.47;6216390;23;20022;-87
2022/05/25 10:44:07;;;;;;;2.05;1.33;;;;;;;19.05;51.78;101407.81;6214900;23;20023;-85
2022/05/25 10:46:33;;;;;;;0.80;0.80;;;;;;;19.39;50.32;101411.63;6215919;23;20083;-84
2022/05/25 10:49:15;;;;;;;2.17;1.03;;;;;;;19.64;49.58;101414.94;6215833;23;20032;-84
2022/05/25 10:51:47;;;;;;;1.60;0.90;;;;;;;19.71;49.84;101413.72;6215187;23;20076;-84
2022/05/25 10:54:44;;;;;;;0.75;0.70;;;;;;;19.80;49.81;101423.00;6216513;23;20370;-84
2022/05/25 10:57:28;;;;;;;2.10;0.90;;;;;;;19.47;47.56;101423.59;6215597;23;20031;-87
2022/05/25 10:59:59;;;;;;;2.42;1.00;;;;;;;19.47;49.60;101419.19;6215378;23;20076;-87
2022/05/25 11:02:36;;;;;;;0.73;0.70;;;;;;;19.60;49.80;101420.34;6214612;23;20418;-87
2022/05/25 11:05:28;;;;;;;1.30;0.77;;;;;;;19.87;49.54;101413.97;6215150;23;20076;-86
2022/05/25 11:08:03;;;;;;;1.40;1.00;;;;;;;20.09;47.99;101408.53;6213616;23;20008;-92
2022/05/25 11:10:37;;;;;;;3.53;1.13;;;;;;;20.19;47.99;101423.00;6215398;23;20506;-86
2022/05/25 11:13:14;;;;;;;1.00;1.00;;;;;;;20.00;46.65;101420.34;6215348;23;20005;-87
2022/05/25 11:15:51;;;;;;;1.98;1.00;;;;;;;19.94;47.31;101414.50;6215156;23;20015;-88
2022/05/25 11:19:07;;;;;;;2.38;0.90;;;;;;;20.12;47.40;101423.34;6212485;23;20452;-85
2022/05/25 11:22:03;;;;;;;1.75;0.93;;;;;;;20.18;47.71;101416.00;6094747;23;20089;-85
2022/05/25 11:24:41;;;;;;;2.10;1.00;;;;;;;20.03;48.12;101412.31;6094951;23;20400;-86
2022/05/25 11:27:06;;;;;;;3.67;1.10;;;;;;;20.20;48.18;101413.31;6195148;23;20012;-85
2022/05/25 11:29:49;;;;;;;1.83;1.20;;;;;;;20.46;48.06;101396.25;6215813;23;20453;-86
2022/05/25 11:32:39;;;;;;;1.50;1.05;;;;;;;20.60;44.30;101407.94;6216044;23;20031;-87
2022/05/25 11:35:24;;;;;;;1.15;0.90;;;;;;;20.48;46.10;101407.59;6216159;23;20079;-86
2022/05/25 11:38:21;;;;;;;2.85;0.77;;;;;;;20.44;44.40;101394.59;6215407;23;20008;-85
2022/05/25 11:40:59;;;;;;;0.57;0.57;;;;;;;20.66;47.05;101400.53;6214942;23;20358;-85
2022/05/25 11:43:33;;;;;;;2.08;0.70;;;;;;;20.74;45.74;101394.94;6215748;23;20001;-86
2022/05/25 11:46:26;;;;;;;0.73;0.50;;;;;;;20.73;47.81;101400.25;6215515;23;20011;-86
2022/05/25 11:48:57;;;;;;;1.63;0.95;;;;;;;20.73;47.21;101394.97;6215922;23;20009;-86
2022/05/25 11:51:42;;;;;;;1.63;1.05;;;;;;;20.86;46.72;101395.25;6216044;23;20063;-87
2022/05/25 11:54:43;;;;;;;1.83;1.08;;;;;;;20.68;44.26;101401.34;6215198;23;20000;-87
2022/05/25 11:57:30;;;;;;;2.00;0.75;;;;;;;20.49;46.04;101403.16;6215993;23;20000;-87
2022/05/25 12:00:26;;;;;;;1.00;0.90;;;;;;;20.18;44.66;101397.56;6215235;23;20920;-86
2022/05/25 12:03:18;;;;;;;0.95;0.70;;;;;;;20.05;47.19;101412.22;6214994;23;20011;-87
2022/05/25 12:06:24;;;;;;;1.13;0.47;;;;;;;20.03;45.61;101416.75;6215115;23;20376;-85
2022/05/25 12:09:09;;;;;;;1.42;0.60;;;;;;;19.88;46.74;101402.47;6214713;23;20011;-86
2022/05/25 12:11:49;;;;;;;0.73;0.63;;;;;;;19.80;47.33;101401.94;6215517;23;20418;-85
2022/05/25 12:14:39;;;;;;;1.55;0.80;;;;;;;19.83;47.80;101392.13;6215750;23;20012;-86
2022/05/25 12:17:19;;;;;;;2.47;1.00;;;;;;;19.99;46.97;101394.94;6215610;23;20039;-86